sensor_id;sensor_type;location;lat;lon;timestamp;P1;durP1;ratioP1;P2;durP2;ratioP2
52918;SDS011;38793;52.690;6.812;2023-03-01T00:00:12;12.38;;;9.70;;
52918;SDS011;38793;52.690;6.812;2023-03-01T00:02:38;14.98;;;10.27;;
52918;SDS011;38793;52.690;6.812;2023-03-01T00:05:03;13.30;;;9.77;;
52918;SDS011;38793;52.690;6.812;2023-03-01T00:07:30;16.83;;;10.70;;
52918;SDS011;38793;52.690;6.812;2023-03-01T00:09:55;15.53;;;9.70;;
52918;SDS011;38793;52.690;6.812;2023-03-01T00:12:21;17.30;;;11.37;;
52918;SDS011;38793;52.690;6.812;2023-03-01T00:14:47;15.07;;;11.32;;
52918;SDS011;38793;52.690;6.812;2023-03-01T00:17:12;13.93;;;11.47;;
52918;SDS011;38793;52.690;6.812;2023-03-01T00:19:38;12.63;;;10.68;;
52918;SDS011;38793;52.690;6.812;2023-03-01T00:22:03;20.83;;;12.17;;
52918;SDS011;38793;52.690;6.812;2023-03-01T00:24:29;14.20;;;10.60;;
52918;SDS011;38793;52.690;6.812;2023-03-01T00:26:55;17.57;;;9.60;;
52918;SDS011;38793;52.690;6.812;2023-03-01T00:29:22;14.32;;;12.05;;
52918;SDS011;38793;52.690;6.812;2023-03-01T00:31:48;15.95;;;11.95;;
52918;SDS011;38793;52.690;6.812;2023-03-01T00:34:14;15.17;;;11.43;;
52918;SDS011;38793;52.690;6.812;2023-03-01T00:36:39;16.50;;;11.87;;
52918;SDS011;38793;52.690;6.812;2023-03-01T00:39:07;17.00;;;14.17;;
52918;SDS011;38793;52.690;6.812;2023-03-01T00:41:35;22.73;;;14.20;;
52918;SDS011;38793;52.690;6.812;2023-03-01T00:44:01;18.40;;;14.17;;
52918;SDS011;38793;52.690;6.812;2023-03-01T00:46:27;21.37;;;14.20;;
52918;SDS011;38793;52.690;6.812;2023-03-01T00:48:55;19.92;;;15.05;;
52918;SDS011;38793;52.690;6.812;2023-03-01T00:51:21;20.13;;;15.05;;
52918;SDS011;38793;52.690;6.812;2023-03-01T00:53:50;19.92;;;14.65;;
52918;SDS011;38793;52.690;6.812;2023-03-01T00:56:17;19.10;;;14.10;;
52918;SDS011;38793;52.690;6.812;2023-03-01T00:58:43;26.40;;;15.55;;
52918;SDS011;38793;52.690;6.812;2023-03-01T01:01:15;18.40;;;14.60;;
52918;SDS011;38793;52.690;6.812;2023-03-01T01:04:04;20.98;;;14.55;;
52918;SDS011;38793;52.690;6.812;2023-03-01T01:06:30;19.02;;;14.10;;
52918;SDS011;38793;52.690;6.812;2023-03-01T01:09:00;20.80;;;13.13;;
52918;SDS011;38793;52.690;6.812;2023-03-01T01:11:27;15.43;;;11.30;;
52918;SDS011;38793;52.690;6.812;2023-03-01T01:13:53;19.83;;;13.50;;
52918;SDS011;38793;52.690;6.812;2023-03-01T01:16:20;18.25;;;14.18;;
52918;SDS011;38793;52.690;6.812;2023-03-01T01:18:47;28.50;;;16.42;;
52918;SDS011;38793;52.690;6.812;2023-03-01T01:21:14;25.30;;;16.47;;
52918;SDS011;38793;52.690;6.812;2023-03-01T01:23:42;22.88;;;14.13;;
52918;SDS011;38793;52.690;6.812;2023-03-01T01:26:13;18.15;;;13.35;;
52918;SDS011;38793;52.690;6.812;2023-03-01T01:28:40;20.05;;;14.35;;
52918;SDS011;38793;52.690;6.812;2023-03-01T01:31:06;18.87;;;12.40;;
52918;SDS011;38793;52.690;6.812;2023-03-01T01:33:33;20.75;;;12.45;;
52918;SDS011;38793;52.690;6.812;2023-03-01T01:35:59;16.40;;;12.05;;
52918;SDS011;38793;52.690;6.812;2023-03-01T01:38:25;18.40;;;13.70;;
52918;SDS011;38793;52.690;6.812;2023-03-01T01:40:51;15.87;;;12.70;;
52918;SDS011;38793;52.690;6.812;2023-03-01T01:43:27;18.13;;;12.52;;
52918;SDS011;38793;52.690;6.812;2023-03-01T01:48:37;23.88;;;15.40;;
52918;SDS011;38793;52.690;6.812;2023-03-01T01:51:10;17.60;;;13.85;;
52918;SDS011;38793;52.690;6.812;2023-03-01T01:53:45;25.08;;;14.90;;
52918;SDS011;38793;52.690;6.812;2023-03-01T01:56:14;19.38;;;13.80;;
52918;SDS011;38793;52.690;6.812;2023-03-01T01:58:43;19.30;;;13.13;;
52918;SDS011;38793;52.690;6.812;2023-03-01T02:01:10;20.77;;;13.98;;
52918;SDS011;38793;52.690;6.812;2023-03-01T02:03:37;25.88;;;14.80;;
52918;SDS011;38793;52.690;6.812;2023-03-01T02:08:46;21.15;;;14.15;;
52918;SDS011;38793;52.690;6.812;2023-03-01T02:11:14;21.63;;;14.98;;
52918;SDS011;38793;52.690;6.812;2023-03-01T02:13:40;25.57;;;13.40;;
52918;SDS011;38793;52.690;6.812;2023-03-01T02:16:11;18.67;;;12.82;;
52918;SDS011;38793;52.690;6.812;2023-03-01T02:18:38;19.35;;;12.65;;
52918;SDS011;38793;52.690;6.812;2023-03-01T02:23:42;19.37;;;13.70;;
52918;SDS011;38793;52.690;6.812;2023-03-01T02:26:15;21.25;;;15.60;;
52918;SDS011;38793;52.690;6.812;2023-03-01T02:29:02;26.55;;;16.42;;
52918;SDS011;38793;52.690;6.812;2023-03-01T02:31:30;21.83;;;15.77;;
52918;SDS011;38793;52.690;6.812;2023-03-01T02:36:48;22.60;;;15.50;;
52918;SDS011;38793;52.690;6.812;2023-03-01T02:39:18;25.30;;;16.52;;
52918;SDS011;38793;52.690;6.812;2023-03-01T02:41:53;24.45;;;15.77;;
52918;SDS011;38793;52.690;6.812;2023-03-01T02:44:21;21.63;;;15.32;;
52918;SDS011;38793;52.690;6.812;2023-03-01T02:46:48;24.00;;;16.43;;
52918;SDS011;38793;52.690;6.812;2023-03-01T02:49:20;22.08;;;15.13;;
52918;SDS011;38793;52.690;6.812;2023-03-01T02:55:06;21.55;;;14.88;;
52918;SDS011;38793;52.690;6.812;2023-03-01T02:57:39;20.00;;;14.10;;
52918;SDS011;38793;52.690;6.812;2023-03-01T03:00:09;18.75;;;14.45;;
52918;SDS011;38793;52.690;6.812;2023-03-01T03:02:44;18.03;;;14.37;;
52918;SDS011;38793;52.690;6.812;2023-03-01T03:05:12;23.35;;;15.27;;
52918;SDS011;38793;52.690;6.812;2023-03-01T03:07:40;21.80;;;16.50;;
52918;SDS011;38793;52.690;6.812;2023-03-01T03:10:09;25.52;;;18.08;;
52918;SDS011;38793;52.690;6.812;2023-03-01T03:12:37;27.17;;;18.73;;
52918;SDS011;38793;52.690;6.812;2023-03-01T03:15:04;23.83;;;17.13;;
52918;SDS011;38793;52.690;6.812;2023-03-01T03:17:34;27.70;;;17.60;;
52918;SDS011;38793;52.690;6.812;2023-03-01T03:20:01;30.25;;;16.05;;
52918;SDS011;38793;52.690;6.812;2023-03-01T03:22:28;24.55;;;16.00;;
52918;SDS011;38793;52.690;6.812;2023-03-01T03:24:54;21.08;;;15.02;;
52918;SDS011;38793;52.690;6.812;2023-03-01T03:27:20;26.63;;;16.33;;
52918;SDS011;38793;52.690;6.812;2023-03-01T03:29:45;20.33;;;15.40;;
52918;SDS011;38793;52.690;6.812;2023-03-01T03:32:11;17.67;;;13.90;;
52918;SDS011;38793;52.690;6.812;2023-03-01T03:34:36;19.47;;;14.70;;
52918;SDS011;38793;52.690;6.812;2023-03-01T03:37:02;21.07;;;15.10;;
52918;SDS011;38793;52.690;6.812;2023-03-01T03:39:28;23.20;;;16.10;;
52918;SDS011;38793;52.690;6.812;2023-03-01T03:41:54;22.90;;;15.40;;
52918;SDS011;38793;52.690;6.812;2023-03-01T03:44:21;23.50;;;16.67;;
52918;SDS011;38793;52.690;6.812;2023-03-01T03:46:46;20.38;;;15.48;;
52918;SDS011;38793;52.690;6.812;2023-03-01T03:49:12;21.07;;;15.50;;
52918;SDS011;38793;52.690;6.812;2023-03-01T03:51:38;20.07;;;14.53;;
52918;SDS011;38793;52.690;6.812;2023-03-01T03:54:03;19.00;;;14.07;;
52918;SDS011;38793;52.690;6.812;2023-03-01T03:56:29;25.83;;;17.10;;
52918;SDS011;38793;52.690;6.812;2023-03-01T03:58:54;19.73;;;14.27;;
52918;SDS011;38793;52.690;6.812;2023-03-01T04:01:20;28.27;;;15.43;;
52918;SDS011;38793;52.690;6.812;2023-03-01T04:03:45;25.17;;;16.87;;
52918;SDS011;38793;52.690;6.812;2023-03-01T04:06:12;25.92;;;16.52;;
52918;SDS011;38793;52.690;6.812;2023-03-01T04:08:40;21.13;;;15.80;;
52918;SDS011;38793;52.690;6.812;2023-03-01T04:11:06;26.97;;;17.43;;
52918;SDS011;38793;52.690;6.812;2023-03-01T04:13:52;25.67;;;17.75;;
52918;SDS011;38793;52.690;6.812;2023-03-01T04:16:20;23.80;;;17.33;;
52918;SDS011;38793;52.690;6.812;2023-03-01T04:18:46;25.70;;;17.02;;
52918;SDS011;38793;52.690;6.812;2023-03-01T04:21:11;22.47;;;17.30;;
52918;SDS011;38793;52.690;6.812;2023-03-01T04:23:37;26.03;;;19.30;;
52918;SDS011;38793;52.690;6.812;2023-03-01T04:26:04;24.00;;;17.48;;
52918;SDS011;38793;52.690;6.812;2023-03-01T04:28:31;29.00;;;18.58;;
52918;SDS011;38793;52.690;6.812;2023-03-01T04:31:08;27.13;;;17.85;;
52918;SDS011;38793;52.690;6.812;2023-03-01T04:33:39;23.15;;;16.55;;
52918;SDS011;38793;52.690;6.812;2023-03-01T04:36:09;29.77;;;18.92;;
52918;SDS011;38793;52.690;6.812;2023-03-01T04:38:38;25.40;;;18.60;;
52918;SDS011;38793;52.690;6.812;2023-03-01T04:41:08;26.92;;;19.15;;
52918;SDS011;38793;52.690;6.812;2023-03-01T04:43:36;25.05;;;18.13;;
52918;SDS011;38793;52.690;6.812;2023-03-01T04:46:02;21.40;;;16.58;;
52918;SDS011;38793;52.690;6.812;2023-03-01T04:48:34;18.80;;;14.18;;
52918;SDS011;38793;52.690;6.812;2023-03-01T04:51:02;17.80;;;13.68;;
52918;SDS011;38793;52.690;6.812;2023-03-01T04:53:28;21.88;;;16.30;;
52918;SDS011;38793;52.690;6.812;2023-03-01T04:55:55;17.13;;;13.45;;
52918;SDS011;38793;52.690;6.812;2023-03-01T04:58:24;18.63;;;13.05;;
52918;SDS011;38793;52.690;6.812;2023-03-01T05:00:51;18.38;;;13.90;;
52918;SDS011;38793;52.690;6.812;2023-03-01T05:03:18;18.30;;;13.27;;
52918;SDS011;38793;52.690;6.812;2023-03-01T05:05:45;16.92;;;13.40;;
52918;SDS011;38793;52.690;6.812;2023-03-01T05:08:12;19.75;;;15.00;;
52918;SDS011;38793;52.690;6.812;2023-03-01T05:10:46;17.83;;;13.93;;
52918;SDS011;38793;52.690;6.812;2023-03-01T05:13:16;18.27;;;14.38;;
52918;SDS011;38793;52.690;6.812;2023-03-01T05:15:56;19.88;;;16.58;;
52918;SDS011;38793;52.690;6.812;2023-03-01T05:18:23;23.80;;;15.85;;
52918;SDS011;38793;52.690;6.812;2023-03-01T05:20:53;23.83;;;16.38;;
52918;SDS011;38793;52.690;6.812;2023-03-01T05:23:21;23.35;;;15.35;;
52918;SDS011;38793;52.690;6.812;2023-03-01T05:25:47;24.95;;;16.98;;
52918;SDS011;38793;52.690;6.812;2023-03-01T05:30:39;17.08;;;13.52;;
52918;SDS011;38793;52.690;6.812;2023-03-01T05:33:05;20.15;;;15.52;;
52918;SDS011;38793;52.690;6.812;2023-03-01T05:35:35;19.63;;;15.65;;
52918;SDS011;38793;52.690;6.812;2023-03-01T05:38:01;21.17;;;15.98;;
52918;SDS011;38793;52.690;6.812;2023-03-01T05:40:27;22.40;;;16.33;;
52918;SDS011;38793;52.690;6.812;2023-03-01T05:42:55;19.48;;;14.65;;
52918;SDS011;38793;52.690;6.812;2023-03-01T05:45:22;19.70;;;15.45;;
52918;SDS011;38793;52.690;6.812;2023-03-01T05:47:49;20.85;;;14.85;;
52918;SDS011;38793;52.690;6.812;2023-03-01T05:52:46;20.73;;;14.85;;
52918;SDS011;38793;52.690;6.812;2023-03-01T05:55:14;21.58;;;14.27;;
52918;SDS011;38793;52.690;6.812;2023-03-01T05:57:44;20.70;;;14.57;;
52918;SDS011;38793;52.690;6.812;2023-03-01T06:00:11;23.95;;;15.45;;
52918;SDS011;38793;52.690;6.812;2023-03-01T06:02:38;21.63;;;14.85;;
52918;SDS011;38793;52.690;6.812;2023-03-01T06:05:05;22.67;;;16.73;;
52918;SDS011;38793;52.690;6.812;2023-03-01T06:07:32;25.45;;;15.23;;
52918;SDS011;38793;52.690;6.812;2023-03-01T06:09:58;18.47;;;14.30;;
52918;SDS011;38793;52.690;6.812;2023-03-01T06:12:23;21.50;;;15.10;;
52918;SDS011;38793;52.690;6.812;2023-03-01T06:14:49;17.57;;;14.23;;
52918;SDS011;38793;52.690;6.812;2023-03-01T06:17:14;17.43;;;13.97;;
52918;SDS011;38793;52.690;6.812;2023-03-01T06:19:40;21.53;;;15.90;;
52918;SDS011;38793;52.690;6.812;2023-03-01T06:22:06;18.43;;;14.27;;
52918;SDS011;38793;52.690;6.812;2023-03-01T06:24:32;22.25;;;15.80;;
52918;SDS011;38793;52.690;6.812;2023-03-01T06:26:58;21.27;;;15.43;;
52918;SDS011;38793;52.690;6.812;2023-03-01T06:29:23;22.63;;;15.50;;
52918;SDS011;38793;52.690;6.812;2023-03-01T06:31:49;21.43;;;16.80;;
52918;SDS011;38793;52.690;6.812;2023-03-01T06:34:15;36.77;;;33.17;;
52918;SDS011;38793;52.690;6.812;2023-03-01T06:36:40;25.77;;;22.67;;
52918;SDS011;38793;52.690;6.812;2023-03-01T06:39:06;29.43;;;22.60;;
52918;SDS011;38793;52.690;6.812;2023-03-01T06:41:32;35.03;;;24.33;;
52918;SDS011;38793;52.690;6.812;2023-03-01T06:43:58;28.02;;;21.63;;
52918;SDS011;38793;52.690;6.812;2023-03-01T06:46:24;21.33;;;16.23;;
52918;SDS011;38793;52.690;6.812;2023-03-01T06:48:50;23.83;;;17.03;;
52918;SDS011;38793;52.690;6.812;2023-03-01T06:51:15;15.67;;;12.23;;
52918;SDS011;38793;52.690;6.812;2023-03-01T06:53:41;23.23;;;13.97;;
52918;SDS011;38793;52.690;6.812;2023-03-01T06:56:06;22.27;;;16.27;;
52918;SDS011;38793;52.690;6.812;2023-03-01T06:58:32;23.70;;;16.70;;
52918;SDS011;38793;52.690;6.812;2023-03-01T07:00:57;24.90;;;14.83;;
52918;SDS011;38793;52.690;6.812;2023-03-01T07:05:50;23.63;;;17.55;;
52918;SDS011;38793;52.690;6.812;2023-03-01T07:08:18;21.92;;;16.38;;
52918;SDS011;38793;52.690;6.812;2023-03-01T07:10:44;20.30;;;16.75;;
52918;SDS011;38793;52.690;6.812;2023-03-01T07:13:10;48.27;;;21.77;;
52918;SDS011;38793;52.690;6.812;2023-03-01T07:15:36;35.37;;;17.63;;
52918;SDS011;38793;52.690;6.812;2023-03-01T07:18:01;25.70;;;17.23;;
52918;SDS011;38793;52.690;6.812;2023-03-01T07:20:27;26.20;;;22.23;;
52918;SDS011;38793;52.690;6.812;2023-03-01T07:22:53;26.48;;;17.73;;
52918;SDS011;38793;52.690;6.812;2023-03-01T07:25:20;23.88;;;18.33;;
52918;SDS011;38793;52.690;6.812;2023-03-01T07:27:52;25.30;;;19.20;;
52918;SDS011;38793;52.690;6.812;2023-03-01T07:30:19;23.75;;;18.77;;
52918;SDS011;38793;52.690;6.812;2023-03-01T07:32:45;25.92;;;18.88;;
52918;SDS011;38793;52.690;6.812;2023-03-01T07:35:11;26.63;;;19.77;;
52918;SDS011;38793;52.690;6.812;2023-03-01T07:37:36;27.92;;;20.05;;
52918;SDS011;38793;52.690;6.812;2023-03-01T07:40:02;28.90;;;19.23;;
52918;SDS011;38793;52.690;6.812;2023-03-01T07:42:29;28.50;;;19.13;;
52918;SDS011;38793;52.690;6.812;2023-03-01T07:44:54;23.90;;;18.57;;
52918;SDS011;38793;52.690;6.812;2023-03-01T07:47:20;26.17;;;17.73;;
52918;SDS011;38793;52.690;6.812;2023-03-01T07:49:46;26.43;;;19.80;;
52918;SDS011;38793;52.690;6.812;2023-03-01T07:52:11;26.83;;;20.10;;
52918;SDS011;38793;52.690;6.812;2023-03-01T07:54:37;25.77;;;19.23;;
52918;SDS011;38793;52.690;6.812;2023-03-01T07:57:03;27.42;;;20.45;;
52918;SDS011;38793;52.690;6.812;2023-03-01T07:59:29;33.07;;;20.50;;
52918;SDS011;38793;52.690;6.812;2023-03-01T08:01:55;28.47;;;20.03;;
52918;SDS011;38793;52.690;6.812;2023-03-01T08:04:21;28.98;;;20.17;;
52918;SDS011;38793;52.690;6.812;2023-03-01T08:06:48;32.08;;;21.95;;
52918;SDS011;38793;52.690;6.812;2023-03-01T08:09:13;31.80;;;21.17;;
52918;SDS011;38793;52.690;6.812;2023-03-01T08:11:39;27.90;;;19.23;;
52918;SDS011;38793;52.690;6.812;2023-03-01T08:14:05;31.47;;;21.63;;
52918;SDS011;38793;52.690;6.812;2023-03-01T08:16:31;30.02;;;20.77;;
52918;SDS011;38793;52.690;6.812;2023-03-01T08:19:02;28.10;;;21.17;;
52918;SDS011;38793;52.690;6.812;2023-03-01T08:21:32;30.98;;;21.85;;
52918;SDS011;38793;52.690;6.812;2023-03-01T08:24:00;36.80;;;20.58;;
52918;SDS011;38793;52.690;6.812;2023-03-01T08:26:26;29.63;;;20.23;;
52918;SDS011;38793;52.690;6.812;2023-03-01T08:28:52;25.83;;;19.27;;
52918;SDS011;38793;52.690;6.812;2023-03-01T08:31:18;27.07;;;19.30;;
52918;SDS011;38793;52.690;6.812;2023-03-01T08:33:50;24.98;;;17.65;;
52918;SDS011;38793;52.690;6.812;2023-03-01T08:36:24;26.75;;;18.20;;
52918;SDS011;38793;52.690;6.812;2023-03-01T08:38:55;21.58;;;17.50;;
52918;SDS011;38793;52.690;6.812;2023-03-01T08:41:21;27.20;;;17.17;;
52918;SDS011;38793;52.690;6.812;2023-03-01T08:43:46;24.40;;;18.10;;
52918;SDS011;38793;52.690;6.812;2023-03-01T08:46:12;22.70;;;15.52;;
52918;SDS011;38793;52.690;6.812;2023-03-01T08:48:39;25.80;;;15.23;;
52918;SDS011;38793;52.690;6.812;2023-03-01T08:51:08;23.40;;;16.52;;
52918;SDS011;38793;52.690;6.812;2023-03-01T08:53:34;25.65;;;16.30;;
52918;SDS011;38793;52.690;6.812;2023-03-01T08:56:00;22.13;;;16.07;;
52918;SDS011;38793;52.690;6.812;2023-03-01T08:58:27;21.63;;;15.13;;
52918;SDS011;38793;52.690;6.812;2023-03-01T09:00:53;16.92;;;13.45;;
52918;SDS011;38793;52.690;6.812;2023-03-01T09:03:21;21.88;;;14.00;;
52918;SDS011;38793;52.690;6.812;2023-03-01T09:05:47;19.83;;;13.82;;
52918;SDS011;38793;52.690;6.812;2023-03-01T09:08:15;20.77;;;12.73;;
52918;SDS011;38793;52.690;6.812;2023-03-01T09:13:07;19.13;;;12.93;;
52918;SDS011;38793;52.690;6.812;2023-03-01T09:15:33;18.48;;;12.93;;
52918;SDS011;38793;52.690;6.812;2023-03-01T09:17:59;24.02;;;14.57;;
52918;SDS011;38793;52.690;6.812;2023-03-01T09:20:25;21.90;;;13.20;;
52918;SDS011;38793;52.690;6.812;2023-03-01T09:22:50;23.87;;;15.50;;
52918;SDS011;38793;52.690;6.812;2023-03-01T09:25:16;16.87;;;12.67;;
52918;SDS011;38793;52.690;6.812;2023-03-01T09:27:41;13.03;;;9.97;;
52918;SDS011;38793;52.690;6.812;2023-03-01T09:30:07;13.73;;;9.83;;
52918;SDS011;38793;52.690;6.812;2023-03-01T09:32:33;12.88;;;10.50;;
52918;SDS011;38793;52.690;6.812;2023-03-01T09:34:59;11.93;;;8.70;;
52918;SDS011;38793;52.690;6.812;2023-03-01T09:37:33;13.18;;;7.60;;
52918;SDS011;38793;52.690;6.812;2023-03-01T09:40:00;14.48;;;8.68;;
52918;SDS011;38793;52.690;6.812;2023-03-01T09:42:29;12.93;;;8.00;;
52918;SDS011;38793;52.690;6.812;2023-03-01T09:45:10;7.18;;;4.05;;
52918;SDS011;38793;52.690;6.812;2023-03-01T09:47:40;11.93;;;6.32;;
52918;SDS011;38793;52.690;6.812;2023-03-01T09:55:01;4.18;;;2.47;;
52918;SDS011;38793;52.690;6.812;2023-03-01T09:57:43;3.17;;;2.50;;
52918;SDS011;38793;52.690;6.812;2023-03-01T10:02:46;3.95;;;2.50;;
52918;SDS011;38793;52.690;6.812;2023-03-01T10:08:03;7.80;;;2.92;;
52918;SDS011;38793;52.690;6.812;2023-03-01T10:10:37;5.22;;;3.15;;
52918;SDS011;38793;52.690;6.812;2023-03-01T10:13:15;4.38;;;3.60;;
52918;SDS011;38793;52.690;6.812;2023-03-01T10:15:47;4.95;;;4.03;;
52918;SDS011;38793;52.690;6.812;2023-03-01T10:18:20;8.77;;;3.85;;
52918;SDS011;38793;52.690;6.812;2023-03-01T10:20:53;4.72;;;3.50;;
52918;SDS011;38793;52.690;6.812;2023-03-01T10:23:27;6.18;;;3.13;;
52918;SDS011;38793;52.690;6.812;2023-03-01T10:26:11;5.93;;;3.28;;
52918;SDS011;38793;52.690;6.812;2023-03-01T10:28:53;3.45;;;2.70;;
52918;SDS011;38793;52.690;6.812;2023-03-01T10:36:49;4.30;;;2.75;;
52918;SDS011;38793;52.690;6.812;2023-03-01T10:39:23;3.03;;;2.45;;
52918;SDS011;38793;52.690;6.812;2023-03-01T10:41:57;2.90;;;2.60;;
52918;SDS011;38793;52.690;6.812;2023-03-01T10:44:35;3.38;;;2.58;;
52918;SDS011;38793;52.690;6.812;2023-03-01T10:47:01;2.88;;;2.28;;
52918;SDS011;38793;52.690;6.812;2023-03-01T10:49:27;3.47;;;1.95;;
52918;SDS011;38793;52.690;6.812;2023-03-01T10:51:53;2.73;;;2.20;;
52918;SDS011;38793;52.690;6.812;2023-03-01T10:54:25;7.20;;;3.00;;
52918;SDS011;38793;52.690;6.812;2023-03-01T10:56:54;4.47;;;2.78;;
52918;SDS011;38793;52.690;6.812;2023-03-01T10:59:25;10.70;;;3.72;;
52918;SDS011;38793;52.690;6.812;2023-03-01T11:07:24;4.38;;;2.88;;
52918;SDS011;38793;52.690;6.812;2023-03-01T11:09:49;6.70;;;3.00;;
52918;SDS011;38793;52.690;6.812;2023-03-01T11:12:15;5.13;;;3.23;;
52918;SDS011;38793;52.690;6.812;2023-03-01T11:17:36;5.97;;;3.08;;
52918;SDS011;38793;52.690;6.812;2023-03-01T11:22:41;9.50;;;4.30;;
52918;SDS011;38793;52.690;6.812;2023-03-01T11:25:13;7.55;;;4.68;;
52918;SDS011;38793;52.690;6.812;2023-03-01T11:27:43;5.72;;;4.75;;
52918;SDS011;38793;52.690;6.812;2023-03-01T11:35:25;6.90;;;5.00;;
52918;SDS011;38793;52.690;6.812;2023-03-01T11:40:35;7.93;;;6.05;;
52918;SDS011;38793;52.690;6.812;2023-03-01T11:51:09;10.68;;;5.22;;
52918;SDS011;38793;52.690;6.812;2023-03-01T11:59:25;9.07;;;6.00;;
52918;SDS011;38793;52.690;6.812;2023-03-01T12:07:45;6.60;;;5.63;;
52918;SDS011;38793;52.690;6.812;2023-03-01T12:10:27;8.35;;;4.97;;
52918;SDS011;38793;52.690;6.812;2023-03-01T12:13:04;10.27;;;6.80;;
52918;SDS011;38793;52.690;6.812;2023-03-01T12:15:51;10.85;;;6.35;;
52918;SDS011;38793;52.690;6.812;2023-03-01T12:20:51;7.53;;;5.87;;
52918;SDS011;38793;52.690;6.812;2023-03-01T12:26:25;9.10;;;6.00;;
52918;SDS011;38793;52.690;6.812;2023-03-01T12:39:45;8.43;;;6.20;;
52918;SDS011;38793;52.690;6.812;2023-03-01T12:53:27;11.90;;;5.43;;
52918;SDS011;38793;52.690;6.812;2023-03-01T12:55:57;8.02;;;5.93;;
52918;SDS011;38793;52.690;6.812;2023-03-01T13:07:14;13.90;;;5.90;;
52918;SDS011;38793;52.690;6.812;2023-03-01T13:09:51;8.25;;;5.50;;
52918;SDS011;38793;52.690;6.812;2023-03-01T13:17:47;9.55;;;5.82;;
52918;SDS011;38793;52.690;6.812;2023-03-01T13:20:15;6.32;;;5.32;;
52918;SDS011;38793;52.690;6.812;2023-03-01T13:22:43;6.40;;;5.25;;
52918;SDS011;38793;52.690;6.812;2023-03-01T13:25:12;10.32;;;6.53;;
52918;SDS011;38793;52.690;6.812;2023-03-01T13:27:40;7.78;;;6.00;;
52918;SDS011;38793;52.690;6.812;2023-03-01T13:30:37;6.07;;;5.10;;
52918;SDS011;38793;52.690;6.812;2023-03-01T13:33:33;7.45;;;5.90;;
52918;SDS011;38793;52.690;6.812;2023-03-01T13:35:59;7.40;;;5.53;;
52918;SDS011;38793;52.690;6.812;2023-03-01T13:47:03;9.02;;;5.82;;
52918;SDS011;38793;52.690;6.812;2023-03-01T13:49:34;8.95;;;6.57;;
52918;SDS011;38793;52.690;6.812;2023-03-01T13:52:13;15.20;;;6.03;;
52918;SDS011;38793;52.690;6.812;2023-03-01T13:57:57;10.80;;;5.80;;
52918;SDS011;38793;52.690;6.812;2023-03-01T14:00:27;5.90;;;5.30;;
52918;SDS011;38793;52.690;6.812;2023-03-01T14:03:05;8.80;;;4.32;;
52918;SDS011;38793;52.690;6.812;2023-03-01T14:05:43;6.05;;;4.43;;
52918;SDS011;38793;52.690;6.812;2023-03-01T14:08:24;5.10;;;4.30;;
52918;SDS011;38793;52.690;6.812;2023-03-01T14:19:35;6.20;;;4.95;;
52918;SDS011;38793;52.690;6.812;2023-03-01T14:24:37;6.18;;;5.43;;
52918;SDS011;38793;52.690;6.812;2023-03-01T14:27:09;10.18;;;6.13;;
52918;SDS011;38793;52.690;6.812;2023-03-01T14:29:38;6.47;;;5.50;;
52918;SDS011;38793;52.690;6.812;2023-03-01T14:32:08;10.82;;;6.47;;
52918;SDS011;38793;52.690;6.812;2023-03-01T14:34:44;6.25;;;5.25;;
52918;SDS011;38793;52.690;6.812;2023-03-01T14:37:19;6.38;;;5.32;;
52918;SDS011;38793;52.690;6.812;2023-03-01T14:39:47;8.27;;;5.95;;
52918;SDS011;38793;52.690;6.812;2023-03-01T14:42:14;9.25;;;6.85;;
52918;SDS011;38793;52.690;6.812;2023-03-01T14:44:42;9.38;;;6.20;;
52918;SDS011;38793;52.690;6.812;2023-03-01T14:47:11;12.27;;;7.70;;
52918;SDS011;38793;52.690;6.812;2023-03-01T14:49:41;10.05;;;7.20;;
52918;SDS011;38793;52.690;6.812;2023-03-01T14:52:17;10.88;;;7.90;;
52918;SDS011;38793;52.690;6.812;2023-03-01T14:54:46;10.00;;;7.40;;
52918;SDS011;38793;52.690;6.812;2023-03-01T14:57:15;12.38;;;9.30;;
52918;SDS011;38793;52.690;6.812;2023-03-01T14:59:42;15.60;;;9.00;;
52918;SDS011;38793;52.690;6.812;2023-03-01T15:02:11;15.43;;;9.32;;
52918;SDS011;38793;52.690;6.812;2023-03-01T15:04:48;16.30;;;9.70;;
52918;SDS011;38793;52.690;6.812;2023-03-01T15:07:16;12.10;;;8.70;;
52918;SDS011;38793;52.690;6.812;2023-03-01T15:12:41;14.55;;;8.95;;
52918;SDS011;38793;52.690;6.812;2023-03-01T15:15:18;13.27;;;9.50;;
52918;SDS011;38793;52.690;6.812;2023-03-01T15:17:51;12.07;;;9.45;;
52918;SDS011;38793;52.690;6.812;2023-03-01T15:20:20;16.85;;;8.73;;
52918;SDS011;38793;52.690;6.812;2023-03-01T15:22:50;15.40;;;8.23;;
52918;SDS011;38793;52.690;6.812;2023-03-01T15:27:53;12.05;;;8.95;;
52918;SDS011;38793;52.690;6.812;2023-03-01T15:30:31;12.80;;;9.00;;
52918;SDS011;38793;52.690;6.812;2023-03-01T15:35:49;11.60;;;8.68;;
52918;SDS011;38793;52.690;6.812;2023-03-01T15:38:27;13.45;;;9.07;;
52918;SDS011;38793;52.690;6.812;2023-03-01T15:41:24;9.15;;;7.72;;
52918;SDS011;38793;52.690;6.812;2023-03-01T15:43:50;10.48;;;8.02;;
52918;SDS011;38793;52.690;6.812;2023-03-01T15:46:31;11.30;;;8.48;;
52918;SDS011;38793;52.690;6.812;2023-03-01T15:49:03;13.73;;;9.70;;
52918;SDS011;38793;52.690;6.812;2023-03-01T15:51:33;9.43;;;7.78;;
52918;SDS011;38793;52.690;6.812;2023-03-01T15:54:05;9.23;;;7.75;;
52918;SDS011;38793;52.690;6.812;2023-03-01T15:59:03;10.18;;;8.15;;
52918;SDS011;38793;52.690;6.812;2023-03-01T16:01:29;10.32;;;7.80;;
52918;SDS011;38793;52.690;6.812;2023-03-01T16:03:55;8.75;;;7.63;;
52918;SDS011;38793;52.690;6.812;2023-03-01T16:06:23;9.27;;;7.35;;
52918;SDS011;38793;52.690;6.812;2023-03-01T16:08:48;12.20;;;8.00;;
52918;SDS011;38793;52.690;6.812;2023-03-01T16:11:15;12.18;;;7.65;;
52918;SDS011;38793;52.690;6.812;2023-03-01T16:13:42;11.63;;;8.38;;
52918;SDS011;38793;52.690;6.812;2023-03-01T16:16:09;11.43;;;7.43;;
52918;SDS011;38793;52.690;6.812;2023-03-01T16:18:44;10.05;;;7.10;;
52918;SDS011;38793;52.690;6.812;2023-03-01T16:21:12;8.38;;;7.57;;
52918;SDS011;38793;52.690;6.812;2023-03-01T16:23:44;11.00;;;7.40;;
52918;SDS011;38793;52.690;6.812;2023-03-01T16:26:11;9.13;;;7.68;;
52918;SDS011;38793;52.690;6.812;2023-03-01T16:28:38;8.85;;;6.88;;
52918;SDS011;38793;52.690;6.812;2023-03-01T16:31:04;7.55;;;6.32;;
52918;SDS011;38793;52.690;6.812;2023-03-01T16:33:30;9.48;;;8.13;;
52918;SDS011;38793;52.690;6.812;2023-03-01T16:35:56;9.32;;;7.80;;
52918;SDS011;38793;52.690;6.812;2023-03-01T16:40:49;10.02;;;7.45;;
52918;SDS011;38793;52.690;6.812;2023-03-01T16:43:16;8.75;;;7.75;;
52918;SDS011;38793;52.690;6.812;2023-03-01T16:45:41;9.70;;;7.97;;
52918;SDS011;38793;52.690;6.812;2023-03-01T16:48:10;11.25;;;7.80;;
52918;SDS011;38793;52.690;6.812;2023-03-01T16:50:35;11.05;;;7.68;;
52918;SDS011;38793;52.690;6.812;2023-03-01T16:53:01;11.75;;;8.40;;
52918;SDS011;38793;52.690;6.812;2023-03-01T16:55:27;10.15;;;7.50;;
52918;SDS011;38793;52.690;6.812;2023-03-01T16:57:53;10.20;;;7.40;;
52918;SDS011;38793;52.690;6.812;2023-03-01T17:00:19;11.63;;;9.50;;
52918;SDS011;38793;52.690;6.812;2023-03-01T17:05:11;12.68;;;8.52;;
52918;SDS011;38793;52.690;6.812;2023-03-01T17:07:37;22.42;;;8.50;;
52918;SDS011;38793;52.690;6.812;2023-03-01T17:10:05;18.38;;;7.70;;
52918;SDS011;38793;52.690;6.812;2023-03-01T17:12:33;35.40;;;10.20;;
52918;SDS011;38793;52.690;6.812;2023-03-01T17:14:59;34.35;;;10.77;;